Terminal Aerodrome Forecast
Issued by NWS

Home | Current Version | Previous Version | Text Only | Print | Product List | Glossary On
Versions: 1 2 3 4 5 6 7 8 9 10 11 12 13 14
000
FTUS42 KMLB 032349 RRA
TAFTIX
TAF
KTIX 032349Z 0400/0424 22015KT P6SM SCT100
     FM041400 23008KT P6SM SCT030 SCT100 OVC250
     FM041800 22008KT P6SM VCTS SCT035CB BKN080
      TEMPO 0420/0423 4SM TSRA BKN030CB BKN060
      AMD NOT SKED 0402/0412=

USA.gov is the U.S. government's official web portal to all federal, state and local government web resources and services.